Moi Airstrip


Codes: AYOX/
Name: Moi Airstrip
City: Moi
Country: Papua New Guinea
Elevation: 240 ft.

Photos at Moi Airstrip


   Photos courtesy of SpottingLog. You can add your own sightings and photos by signing up for a free trial today.



No photos found.

Weather at Moi Airstrip


Time (UTC)DescriptionTempratureWindCloud coverageVisibilityPressureHumidity
16-Jun-2024 09:00Light Rain25°C2 mph, SE100%10000m1010hPa93%
16-Jun-2024 12:00Light Rain25°C2 mph, SE97%10000m1010hPa94%
16-Jun-2024 15:00Light Rain24°C2 mph, S96%10000m1011hPa97%
16-Jun-2024 18:00Light Rain23°C2 mph, SE78%10000m1010hPa99%
16-Jun-2024 21:00Light Rain23°C2 mph, S59%10000m1011hPa99%
17-Jun-2024 00:00Broken Clouds27°C2 mph, NW71%10000m1012hPa81%
17-Jun-2024 03:00Light Rain31°C2 mph, N85%10000m1009hPa68%
17-Jun-2024 06:00Light Rain31°C2 mph, NE64%10000m1007hPa72%
17-Jun-2024 09:00Light Rain26°C2 mph, SE94%10000m1009hPa92%
17-Jun-2024 12:00Moderate Rain24°C2 mph, SE97%3967m1012hPa99%
17-Jun-2024 15:00Moderate Rain23°C2 mph, S100%10000m1012hPa99%
17-Jun-2024 18:00Moderate Rain23°C2 mph, SE100%2360m1011hPa99%
17-Jun-2024 21:00Moderate Rain23°C2 mph, S100%10000m1012hPa99%
18-Jun-2024 00:00Light Rain27°C2 mph, NW98%10000m1012hPa85%
18-Jun-2024 03:00Light Rain32°C2 mph, N98%10000m1009hPa61%
18-Jun-2024 06:00Light Rain30°C2 mph, NE75%10000m1007hPa71%
18-Jun-2024 09:00Light Rain25°C4 mph, SE98%10000m1008hPa95%
18-Jun-2024 12:00Light Rain23°C2 mph, SE99%10000m1011hPa97%
18-Jun-2024 15:00Light Rain23°C2 mph, SE100%10000m1010hPa99%
18-Jun-2024 18:00Light Rain22°C2 mph, SW100%10000m1010hPa99%
18-Jun-2024 21:00Overcast Clouds22°C2 mph, S94%10000m1011hPa99%
19-Jun-2024 00:00Overcast Clouds28°C2 mph, NW85%10000m1011hPa77%
19-Jun-2024 03:00Light Rain32°C2 mph, N69%10000m1008hPa59%
19-Jun-2024 06:00Light Rain31°C2 mph, NE77%10000m1007hPa66%
19-Jun-2024 09:00Light Rain24°C4 mph, SE100%10000m1008hPa95%
19-Jun-2024 12:00Light Rain23°C2 mph, SE100%10000m1011hPa97%
19-Jun-2024 15:00Light Rain23°C2 mph, S100%10000m1010hPa98%
19-Jun-2024 18:00Light Rain22°C2 mph, S100%10000m1009hPa98%
19-Jun-2024 21:00Overcast Clouds23°C2 mph, S100%10000m1010hPa98%
20-Jun-2024 00:00Overcast Clouds26°C2 mph, NW100%10000m1012hPa83%
20-Jun-2024 03:00Light Rain31°C2 mph, NW99%10000m1009hPa64%
20-Jun-2024 06:00Light Rain30°C2 mph, NE100%10000m1007hPa67%
20-Jun-2024 09:00Light Rain25°C2 mph, E100%10000m1009hPa94%
20-Jun-2024 12:00Light Rain24°C2 mph, SE100%10000m1011hPa95%
20-Jun-2024 15:00Overcast Clouds23°C0 mph, SE100%10000m1010hPa96%
20-Jun-2024 18:00Overcast Clouds23°C2 mph, SE100%10000m1009hPa96%
20-Jun-2024 21:00Overcast Clouds23°C2 mph, S100%10000m1011hPa97%
21-Jun-2024 00:00Overcast Clouds28°C2 mph, NW100%10000m1011hPa75%
21-Jun-2024 03:00Light Rain28°C2 mph, E89%8790m1009hPa84%
21-Jun-2024 06:00Moderate Rain27°C2 mph, NE95%10000m1008hPa90%